Ana Sayfa
METAR-TAF:

METAR-TAF

Havaalanları :

Hagerstown, Maryland, Amerika Birleşik Devletleri

Enlem: 39-42-21N, Boylam: 077-43-48W, yükseklik: 214 m

Güncel hava durumu gözlemi

Rapor saat 08:53 UTC de 34 dakika önce yapıldı.
Rüzgar güneydan 7 kt
Sıcaklık 11°C
Nem 54%
Basınç 1012 hPa
Görüş mesafesi: 16.1 km
4500 ft yükseklikte çok bulutlu

METAR: KHGR 220853Z AUTO 17007KT 10SM OVC045 11/02 A2987 RMK AO2 SLP124 T01060017 58016

Saat: 04:27 (09:27 UTC)


TAF: eksik

4.000'den fazla havaalanı için hava durumu gözlemleri ve tahminleri (METAR ve TAF raporları).

Kullanılabilir istasyonlar harita üzerinde sarı ve kırmızı noktalarla gösterilir.

İstasyonun adını görmek için fareyi noktanın üzerinde gezdirin.

Sonrasında hava gözlem ve tahminlerini görmek için tıklayın.

Haritayı değiştirmek için: yaklaştırmak için siyah artı işaretli yeşil düğmeye ve uzaklaştırmak için de eksi işaretli düğmeye hızla tıklayın; bitişik haritalar için yeşil okları kullanın.


METAR-TAF: